EGPK

Glasgow Prestwick Airport

Glasgow, United Kingdom
METAR EGPK 241120Z 24012KT 9999 -SHRA SCT030 12/08 Q1037
Observed Flight Rules
Sep-24 @ 11:20 UTC (13 minutes ago) Visual Flight Rules
Wind Visibility Clouds Conditions
240° at 12 knots 10,000+ meters
  • Scattered at 3,000' AGL
  • Light Rain
Temperatures Readings
Current 12°C / 54°F
Dewpoint 8°C / 46°F
Humidity 77%
Altimeter 30.62" Hg
Pressure 1037 hPa
Elevation 20
METAR EGPK 241120Z 24012KT 9999 -SHRA SCT030 12/08 Q1037
Observed Flight Rules
Sep-24 @ 11:20 UTC
(13 minutes ago)
VFR
Wind Visibility
240° at 12 knots 10,000+ meters
Clouds
  • Scattered at 3,000' AGL
Conditions
  • Light Rain
Temperature Dewpoint
12°C / 54°F 8°C / 46°F
Humidity Altimeter Pressure
77% 30.62" Hg 1037 hPa